Terminal Aerodrome Forecast
Issued by NWS Topeka, KS

Home | Current Version | Previous Version | Graphics & Text | Print | Product List | Glossary On
Versions: 1 2 3 4 5 6 7 8 9 10 11 12 13 14 15
000
FTUS43 KTOP 261500 AAA
TAFTOP
TAF AMD
KTOP 261547Z 2616/2712 36006KT P6SM BKN200
      TEMPO 2616/2617 BKN006
     FM261700 01006KT P6SM SCT004 OVC010
     FM270200 34006KT 6SM -RASN BR OVC011=

USA.gov is the U.S. government's official web portal to all federal, state and local government web resources and services.